Time;durP1;ratioP1;P1;durP2;ratioP2;P2;SDS_P1;SDS_P2;PMS_P1;PMS_P2;Temp;Humidity;BMP_temperature;BMP_pressure;BME280_temperature;BME280_humidity;BME280_pressure;Samples;Min_cycle;Max_cycle;Signal;HPM_P1;HPM_P2
2022/05/01 00:02:15;;;;;;;21.87;11.00;;;;;;;21.67;51.04;99022.08;1686851;84;27252;-89
2022/05/01 00:04:42;;;;;;;23.67;11.40;;;;;;;21.67;51.02;99022.89;1686516;84;25908;-89
2022/05/01 00:07:12;;;;;;;20.82;10.45;;;;;;;21.66;51.06;99024.09;1686320;84;25638;-89
2022/05/01 00:09:36;;;;;;;23.98;11.48;;;;;;;21.65;51.06;99024.47;1686827;83;25693;-89
2022/05/01 00:12:03;;;;;;;23.20;10.82;;;;;;;21.65;51.09;99023.08;1686640;84;25677;-89
2022/05/01 00:14:29;;;;;;;18.98;10.18;;;;;;;21.64;51.10;99018.66;1686549;84;27497;-89
2022/05/01 00:16:55;;;;;;;22.35;10.88;;;;;;;21.64;51.12;99023.66;1686591;84;25447;-89
2022/05/01 00:19:20;;;;;;;22.65;11.08;;;;;;;21.63;51.12;99018.45;1686578;83;25491;-89
2022/05/01 00:21:46;;;;;;;20.43;10.72;;;;;;;21.61;51.16;99018.02;1686659;85;26011;-89
2022/05/01 00:24:12;;;;;;;21.77;10.78;;;;;;;21.60;51.15;99024.21;1686678;85;25626;-89
2022/05/01 00:26:38;;;;;;;23.18;11.20;;;;;;;21.59;51.18;99024.01;1686641;83;27459;-89
2022/05/01 00:29:06;;;;;;;20.70;10.80;;;;;;;21.60;51.20;99020.61;1686228;84;25478;-89
2022/05/01 00:31:34;;;;;;;18.67;9.55;;;;;;;21.60;51.19;99020.03;1684066;83;25845;-89
2022/05/01 00:36:44;;;;;;;19.15;10.20;;;;;;;21.57;51.25;99019.39;1686306;85;25429;-89
2022/05/01 00:39:09;;;;;;;21.55;10.35;;;;;;;21.58;51.25;99016.81;1686553;84;26661;-89
2022/05/01 00:41:46;;;;;;;19.55;10.03;;;;;;;21.57;51.26;99013.81;1686537;84;25763;-89
2022/05/01 00:44:16;;;;;;;20.27;10.45;;;;;;;21.56;51.25;99015.80;1685507;84;25677;-89
2022/05/01 00:46:49;;;;;;;20.00;10.15;;;;;;;21.56;51.28;99016.41;1695844;84;26002;-89
2022/05/01 00:49:26;;;;;;;19.80;10.25;;;;;;;21.55;51.27;99011.41;1699159;84;25745;-89
2022/05/01 00:52:00;;;;;;;21.23;10.70;;;;;;;21.55;51.28;99013.38;1699314;84;28363;-89
2022/05/01 00:54:29;;;;;;;21.27;10.30;;;;;;;21.54;51.31;99014.00;1699203;84;25720;-89
2022/05/01 00:57:00;;;;;;;20.83;10.97;;;;;;;21.53;51.32;99003.22;1699586;84;25504;-89
2022/05/01 00:59:27;;;;;;;21.02;10.50;;;;;;;21.52;51.33;99009.38;1697597;84;26117;-89
2022/05/01 01:01:53;;;;;;;20.62;10.50;;;;;;;21.51;51.36;99006.39;1699386;84;25626;-89
2022/05/01 01:04:20;;;;;;;18.90;10.10;;;;;;;21.51;51.39;99004.18;1699423;83;27373;-89
2022/05/01 01:06:48;;;;;;;21.37;10.03;;;;;;;21.50;51.39;99008.16;1699333;83;25693;-88
2022/05/01 01:09:16;;;;;;;21.15;10.43;;;;;;;21.50;51.40;99002.59;1699133;84;25608;-89
2022/05/01 01:11:42;;;;;;;20.40;10.40;;;;;;;21.48;51.43;98999.36;1699386;83;26061;-89
2022/05/01 01:14:10;;;;;;;20.00;10.15;;;;;;;21.49;51.40;99005.14;1699521;84;25637;-89
2022/05/01 01:16:39;;;;;;;18.73;10.10;;;;;;;21.48;51.43;99004.36;1699152;83;27489;-89
2022/05/01 01:19:08;;;;;;;18.67;9.93;;;;;;;21.47;51.47;98999.16;1699249;84;25694;-89
2022/05/01 01:21:36;;;;;;;18.73;10.20;;;;;;;21.47;51.45;98996.38;1699488;84;25544;-89
2022/05/01 01:24:06;;;;;;;18.95;10.32;;;;;;;21.46;51.49;99001.72;1699429;84;26052;-89
2022/05/01 01:26:34;;;;;;;19.00;9.93;;;;;;;21.44;51.49;99002.91;1699660;84;25733;-89
2022/05/01 01:29:00;;;;;;;18.40;9.93;;;;;;;21.43;51.51;99008.28;1699077;84;27458;-89
2022/05/01 01:31:42;;;;;;;18.35;9.83;;;;;;;21.44;51.50;99005.70;1699551;84;25658;-89
2022/05/01 01:34:14;;;;;;;18.37;9.63;;;;;;;21.44;51.54;99002.09;1699124;84;25684;-89
2022/05/01 01:36:42;;;;;;;17.73;9.68;;;;;;;21.42;51.56;98997.51;1698238;84;26060;-89
2022/05/01 01:39:08;;;;;;;18.62;9.58;;;;;;;21.40;51.56;98995.10;1699122;83;25617;-89
2022/05/01 01:41:36;;;;;;;19.12;9.68;;;;;;;21.42;51.54;98994.72;1699357;84;28146;-89
2022/05/01 01:44:02;;;;;;;19.42;9.88;;;;;;;21.40;51.58;98988.13;1677250;84;25665;-89
2022/05/01 01:46:31;;;;;;;18.12;9.30;;;;;;;21.40;51.58;98992.31;1691777;83;25676;-89
2022/05/01 01:48:57;;;;;;;19.55;9.85;;;;;;;21.40;51.59;98991.50;1686688;84;25997;-89
2022/05/01 01:51:23;;;;;;;16.40;9.68;;;;;;;21.38;51.59;98995.25;1686737;83;25470;-89
2022/05/01 01:53:49;;;;;;;19.57;10.45;;;;;;;21.38;51.61;98986.30;1686789;84;27465;-89
2022/05/01 01:56:15;;;;;;;18.70;9.70;;;;;;;21.37;51.63;98989.47;1686558;83;25530;-89
2022/05/01 01:58:41;;;;;;;16.82;9.25;;;;;;;21.36;51.62;98983.69;1686922;84;25502;-89
2022/05/01 02:01:10;;;;;;;17.75;9.43;;;;;;;21.36;51.65;98991.45;1686620;84;26243;-89
2022/05/01 02:03:37;;;;;;;18.15;9.58;;;;;;;21.37;51.63;98992.26;1686424;84;25423;-89
2022/05/01 02:06:04;;;;;;;20.52;10.10;;;;;;;21.36;51.65;98992.05;1686606;85;28395;-89
2022/05/01 02:08:34;;;;;;;18.27;9.40;;;;;;;21.34;51.66;98991.04;1686609;85;25648;-89
2022/05/01 02:11:01;;;;;;;19.17;9.80;;;;;;;21.34;51.67;98995.80;1686572;83;25653;-89
2022/05/01 02:13:27;;;;;;;16.80;9.33;;;;;;;21.34;51.69;98988.83;1686624;83;26013;-89
2022/05/01 02:15:53;;;;;;;17.65;9.30;;;;;;;21.33;51.67;98985.84;1686757;84;25491;-89
2022/05/01 02:18:19;;;;;;;18.37;9.43;;;;;;;21.32;51.72;98992.00;1686383;84;28240;-89
2022/05/01 02:23:30;;;;;;;19.45;9.90;;;;;;;21.31;51.72;98989.83;1686393;85;25708;-89
2022/05/01 02:25:55;;;;;;;16.45;9.15;;;;;;;21.31;51.71;98994.59;1686780;84;26006;-89
2022/05/01 02:28:21;;;;;;;14.85;8.98;;;;;;;21.30;51.74;98992.38;1686738;83;25625;-89
2022/05/01 02:30:51;;;;;;;17.67;9.68;;;;;;;21.30;51.75;98996.56;1686670;84;28079;-89
2022/05/01 02:33:15;;;;;;;16.17;9.55;;;;;;;21.31;51.75;98990.41;1686765;83;25747;-89
2022/05/01 02:35:41;;;;;;;16.12;9.30;;;;;;;21.30;51.73;98995.16;1686752;84;25807;-89
2022/05/01 02:38:06;;;;;;;18.07;9.53;;;;;;;21.31;51.74;98987.62;1686511;84;25945;-89
2022/05/01 02:40:33;;;;;;;17.65;9.40;;;;;;;21.30;51.79;98990.98;1686699;84;25793;-89
2022/05/01 02:43:00;;;;;;;16.55;8.83;;;;;;;21.29;51.76;98988.58;1668470;84;26848;-89
2022/05/01 02:45:27;;;;;;;17.32;9.58;;;;;;;21.29;51.77;98989.97;1686683;83;25749;-89
2022/05/01 02:47:53;;;;;;;18.55;9.55;;;;;;;21.28;51.76;98994.76;1699299;83;25759;-89
2022/05/01 02:50:21;;;;;;;16.25;9.23;;;;;;;21.26;51.77;98988.75;1699414;83;26737;-88
2022/05/01 02:52:48;;;;;;;19.02;10.10;;;;;;;21.24;51.83;98984.14;1699050;83;25159;-89
2022/05/01 02:55:15;;;;;;;17.80;9.28;;;;;;;21.25;51.83;98980.19;1699325;83;27355;-89
2022/05/01 02:57:41;;;;;;;15.95;8.83;;;;;;;21.26;51.83;98983.76;1698962;84;25919;-89
2022/05/01 03:00:16;;;;;;;17.37;9.48;;;;;;;21.26;51.82;98986.55;1699388;84;25704;-89
2022/05/01 03:02:37;;;;;;;17.02;9.30;;;;;;;21.24;51.83;98981.34;1700279;82;25515;-89
2022/05/01 03:05:04;;;;;;;17.07;9.05;;;;;;;21.25;51.86;98986.34;1698874;84;25495;-89
2022/05/01 03:07:30;;;;;;;16.67;8.90;;;;;;;21.23;51.85;98981.73;1699037;84;27614;-89
2022/05/01 03:09:56;;;;;;;19.32;9.33;;;;;;;21.24;51.85;98987.53;1699316;83;25921;-89
2022/05/01 03:12:22;;;;;;;15.75;8.85;;;;;;;21.24;51.86;98990.32;1699361;84;25787;-89
2022/05/01 03:14:49;;;;;;;15.83;9.15;;;;;;;21.22;51.85;98985.13;1699102;84;26109;-88
2022/05/01 03:17:15;;;;;;;16.55;8.73;;;;;;;21.23;51.86;98981.73;1699097;84;25633;-89
2022/05/01 03:22:25;;;;;;;15.20;8.95;;;;;;;21.22;51.88;98975.95;1698947;84;25723;-89
2022/05/01 03:24:51;;;;;;;16.12;9.23;;;;;;;21.21;51.87;98983.50;1699126;84;25708;-89
2022/05/01 03:27:17;;;;;;;14.85;8.40;;;;;;;21.21;51.90;98989.68;1699372;83;26033;-89
2022/05/01 03:30:15;;;;;;;16.20;9.10;;;;;;;21.19;51.94;98989.45;1699321;83;25654;-89
2022/05/01 03:32:11;;;;;;;17.77;8.80;;;;;;;21.20;51.91;98987.47;1702877;81;26261;-89
2022/05/01 03:34:39;;;;;;;16.27;8.68;;;;;;;21.18;51.90;98982.28;1699267;84;25513;-89
2022/05/01 03:37:07;;;;;;;17.27;9.58;;;;;;;21.18;51.92;98981.47;1699040;83;25478;-89
2022/05/01 03:39:36;;;;;;;16.15;8.88;;;;;;;21.17;51.94;98987.65;1699256;83;26216;-89
2022/05/01 03:42:04;;;;;;;17.67;9.60;;;;;;;21.17;51.97;98979.29;1699558;84;25482;-89
2022/05/01 03:44:30;;;;;;;16.48;9.20;;;;;;;21.19;51.96;98987.27;1699302;83;27372;-89
2022/05/01 03:46:56;;;;;;;18.07;9.65;;;;;;;21.18;51.98;98989.25;1699178;83;25831;-89
2022/05/01 03:49:22;;;;;;;16.90;9.40;;;;;;;21.16;51.99;98983.23;1699258;84;25727;-89
2022/05/01 03:51:48;;;;;;;16.02;8.98;;;;;;;21.15;52.01;98994.18;1699375;84;26791;-89
2022/05/01 03:54:14;;;;;;;18.02;9.53;;;;;;;21.15;52.03;98995.58;1694715;84;25689;-89
2022/05/01 03:56:39;;;;;;;16.52;9.40;;;;;;;21.14;52.07;98989.80;1695199;84;27402;-89
2022/05/01 03:59:05;;;;;;;16.20;8.80;;;;;;;21.15;52.06;98990.58;1694665;83;25764;-89
2022/05/01 04:01:33;;;;;;;15.63;8.68;;;;;;;21.15;52.06;98991.97;1695548;84;25505;-89
2022/05/01 04:04:00;;;;;;;16.95;9.30;;;;;;;21.15;52.08;98994.76;1695208;83;26061;-89
2022/05/01 04:06:26;;;;;;;16.35;8.80;;;;;;;21.15;52.09;98995.58;1695098;83;25712;-89
2022/05/01 04:08:52;;;;;;;15.32;8.88;;;;;;;21.14;52.09;99001.52;1695498;84;28287;-89
2022/05/01 04:11:19;;;;;;;15.68;8.88;;;;;;;21.15;52.10;99003.93;1694515;84;25840;-89
2022/05/01 04:13:45;;;;;;;16.57;8.65;;;;;;;21.14;52.10;98998.16;1695215;84;25796;-89
2022/05/01 04:16:11;;;;;;;14.93;8.88;;;;;;;21.15;52.12;98996.16;1694844;83;26041;-89
2022/05/01 04:18:37;;;;;;;17.07;9.18;;;;;;;21.16;52.08;98994.99;1695261;83;25769;-89
2022/05/01 04:21:03;;;;;;;15.68;9.03;;;;;;;21.16;52.09;98999.95;1695321;83;27415;-89
2022/05/01 04:23:29;;;;;;;13.90;8.38;;;;;;;21.15;52.12;98995.58;1702111;83;25627;-89
2022/05/01 04:25:55;;;;;;;16.55;9.13;;;;;;;21.15;52.13;98997.55;1702711;83;25481;-89
2022/05/01 04:28:21;;;;;;;15.08;9.25;;;;;;;21.14;52.15;99000.95;1695491;84;25912;-89
2022/05/01 04:30:50;;;;;;;14.63;8.48;;;;;;;21.14;52.16;99003.73;1694502;83;25866;-89
2022/05/01 04:33:15;;;;;;;17.07;8.83;;;;;;;21.15;52.21;99003.13;1707750;83;26073;-90
2022/05/01 04:35:45;;;;;;;14.85;8.53;;;;;;;21.14;52.21;99000.13;1695046;83;25809;-89
2022/05/01 04:38:21;;;;;;;14.20;8.90;;;;;;;21.13;52.23;98995.14;1696225;84;25632;-88
2022/05/01 04:40:52;;;;;;;16.25;8.68;;;;;;;21.13;52.23;99002.10;1692636;84;26147;-88
2022/05/01 04:43:25;;;;;;;16.73;9.48;;;;;;;21.14;52.26;99005.70;1695457;84;25697;-88
2022/05/01 04:45:58;;;;;;;14.30;8.75;;;;;;;21.13;52.29;99008.28;1694009;84;27410;-88
2022/05/01 04:48:25;;;;;;;16.12;8.93;;;;;;;21.15;52.30;99008.11;1691540;84;25840;-88
2022/05/01 04:50:52;;;;;;;15.65;8.85;;;;;;;21.14;52.30;99002.91;1692723;83;25705;-88
2022/05/01 04:53:21;;;;;;;15.55;8.45;;;;;;;21.14;52.31;99002.34;1698549;83;25996;-88
2022/05/01 04:55:49;;;;;;;15.80;9.15;;;;;;;21.17;52.30;99004.95;1696418;83;25674;-88
2022/05/01 04:58:16;;;;;;;15.63;8.98;;;;;;;21.17;52.30;98997.98;1694458;83;27428;-88
2022/05/01 05:00:43;;;;;;;16.17;9.23;;;;;;;21.16;52.31;99002.74;1691328;84;25612;-88
2022/05/01 05:03:10;;;;;;;15.05;9.00;;;;;;;21.16;52.37;99013.11;1691596;83;25449;-88
2022/05/01 05:05:36;;;;;;;13.32;8.45;;;;;;;21.16;52.32;99014.50;1691452;83;26775;-88
2022/05/01 05:10:48;;;;;;;16.32;8.95;;;;;;;21.14;52.46;99014.06;1691185;84;25620;-87
2022/05/01 05:13:21;;;;;;;16.60;9.05;;;;;;;21.12;52.55;99011.66;1691334;84;25836;-88
2022/05/01 05:15:47;;;;;;;15.90;9.55;;;;;;;21.13;52.51;99011.86;1691980;83;30403;-88
2022/05/01 05:18:12;;;;;;;15.08;9.05;;;;;;;21.13;52.49;99011.86;1691352;83;25780;-88
2022/05/01 05:20:38;;;;;;;15.08;8.50;;;;;;;21.13;52.53;99011.86;1691581;83;25625;-88
2022/05/01 05:23:04;;;;;;;14.93;8.48;;;;;;;21.13;52.56;99011.86;1691422;84;28294;-88
2022/05/01 05:25:30;;;;;;;13.75;8.75;;;;;;;21.13;52.59;99008.28;1691318;84;25363;-88
2022/05/01 05:27:56;;;;;;;14.87;9.00;;;;;;;21.13;52.61;99011.86;1697035;83;25685;-88
2022/05/01 05:30:22;;;;;;;14.78;9.10;;;;;;;21.15;52.63;99012.88;1691424;83;26202;-88
2022/05/01 05:32:49;;;;;;;17.25;9.88;;;;;;;21.14;52.76;99011.28;1691430;84;25702;-88
2022/05/01 05:35:15;;;;;;;18.35;10.72;;;;;;;21.15;52.35;99017.05;1691109;83;27469;-88
2022/05/01 05:37:41;;;;;;;16.60;10.28;;;;;;;21.17;52.04;99018.30;1691242;84;25702;-88
2022/05/01 05:40:09;;;;;;;18.57;10.45;;;;;;;21.18;51.86;99023.27;1691502;83;25609;-88
2022/05/01 05:42:35;;;;;;;18.27;10.88;;;;;;;21.19;51.87;99027.68;1691383;83;26074;-88
2022/05/01 05:45:01;;;;;;;19.27;11.75;;;;;;;21.22;51.55;99030.30;1690611;83;25663;-88
2022/05/01 05:47:28;;;;;;;17.10;11.10;;;;;;;21.25;51.20;99028.14;1680369;84;27407;-88
2022/05/01 05:49:55;;;;;;;19.15;11.55;;;;;;;21.27;51.14;99029.37;1662892;85;25456;-88
2022/05/01 05:52:21;;;;;;;17.52;11.05;;;;;;;21.30;51.05;99032.80;1663493;85;25170;-88
2022/05/01 05:54:47;;;;;;;21.07;11.90;;;;;;;21.33;51.03;99026.26;1663265;85;26248;-88
2022/05/01 05:57:13;;;;;;;16.55;10.20;;;;;;;21.37;51.02;99031.28;1664370;85;25844;-88
2022/05/01 05:59:38;;;;;;;17.42;10.32;;;;;;;21.38;51.09;99030.09;1677139;84;28362;-89
2022/05/01 06:02:05;;;;;;;18.05;10.53;;;;;;;21.42;51.16;99040.72;1677100;84;25758;-90
2022/05/01 06:04:31;;;;;;;17.57;10.75;;;;;;;21.44;51.26;99032.18;1692474;84;25745;-89
2022/05/01 06:06:57;;;;;;;18.15;10.75;;;;;;;21.47;51.27;99038.19;1677910;84;26050;-89
2022/05/01 06:09:23;;;;;;;16.00;11.08;;;;;;;21.49;51.30;99039.41;1677611;85;25724;-90
2022/05/01 06:11:49;;;;;;;17.20;10.82;;;;;;;21.51;51.35;99034.27;1677560;85;28369;-89
2022/05/01 06:14:15;;;;;;;16.85;11.05;;;;;;;21.53;51.42;99033.89;1677702;85;25810;-87
2022/05/01 06:16:41;;;;;;;18.50;10.88;;;;;;;21.55;51.48;99035.11;1677777;85;25774;-87
2022/05/01 06:19:07;;;;;;;16.40;10.70;;;;;;;21.57;51.48;99038.91;1677688;84;26871;-87
2022/05/01 06:21:32;;;;;;;17.32;10.72;;;;;;;21.60;51.54;99034.55;1677022;84;25752;-86
2022/05/01 06:23:58;;;;;;;17.85;11.30;;;;;;;21.62;51.45;99032.20;1676812;85;27483;-87
2022/05/01 06:26:25;;;;;;;16.70;10.78;;;;;;;21.66;51.53;99030.25;1678611;85;25238;-88
2022/05/01 06:28:51;;;;;;;17.00;10.95;;;;;;;21.67;51.52;99028.47;1678718;84;25624;-87
2022/05/01 06:31:17;;;;;;;16.48;10.93;;;;;;;21.72;51.52;99033.49;1678389;85;26052;-87
2022/05/01 06:33:46;;;;;;;16.55;10.72;;;;;;;21.74;51.55;99031.14;1678982;85;25653;-87
2022/05/01 06:36:15;;;;;;;18.10;10.65;;;;;;;21.78;51.58;99034.79;1678904;85;27582;-87
2022/05/01 06:38:42;;;;;;;19.00;11.28;;;;;;;21.80;51.57;99035.22;1678355;84;25632;-87
2022/05/01 06:41:08;;;;;;;15.40;10.60;;;;;;;21.85;51.55;99038.27;1678423;84;25436;-87
2022/05/01 06:43:34;;;;;;;18.10;11.03;;;;;;;21.87;51.52;99033.91;1677967;84;26863;-86
2022/05/01 06:46:00;;;;;;;17.05;11.05;;;;;;;21.90;51.51;99040.11;1678732;85;25624;-86
2022/05/01 06:48:26;;;;;;;16.85;11.05;;;;;;;21.92;51.49;99035.55;1678503;84;28279;-86
2022/05/01 06:50:52;;;;;;;15.72;10.60;;;;;;;21.97;51.46;99034.41;1678632;84;25704;-86
2022/05/01 06:53:18;;;;;;;15.98;11.20;;;;;;;21.99;51.40;99035.62;1678884;84;25699;-86
2022/05/01 06:55:44;;;;;;;17.73;10.98;;;;;;;22.03;51.39;99033.69;1675588;84;26030;-88
2022/05/01 06:58:11;;;;;;;15.18;10.23;;;;;;;22.06;51.35;99035.71;1678718;85;25709;-87
2022/05/01 07:00:37;;;;;;;15.40;10.45;;;;;;;22.10;51.32;99034.34;1678655;84;27435;-86
2022/05/01 07:03:03;;;;;;;15.48;10.65;;;;;;;22.13;51.34;99036.36;1678519;85;25640;-87
2022/05/01 07:05:29;;;;;;;16.50;10.65;;;;;;;22.16;51.32;99034.20;1678740;84;25652;-87
2022/05/01 07:07:55;;;;;;;16.25;10.63;;;;;;;22.19;51.29;99032.04;1678735;85;26298;-86
2022/05/01 07:10:23;;;;;;;16.07;10.55;;;;;;;22.22;51.27;99037.44;1678489;85;25470;-88
2022/05/01 07:12:49;;;;;;;15.35;10.85;;;;;;;22.24;51.26;99028.09;1678766;85;28243;-87
2022/05/01 07:15:16;;;;;;;15.85;9.83;;;;;;;22.26;51.21;99034.11;1678611;85;25510;-87
2022/05/01 07:17:43;;;;;;;15.23;10.43;;;;;;;22.28;51.22;99034.51;1678789;85;25665;-86
2022/05/01 07:20:12;;;;;;;16.95;10.38;;;;;;;22.31;51.14;99033.73;1678696;84;26052;-87
2022/05/01 07:22:38;;;;;;;15.58;9.65;;;;;;;22.34;51.04;99026.61;1678801;85;25628;-87
2022/05/01 07:25:05;;;;;;;15.98;10.25;;;;;;;22.36;51.04;99039.56;1678794;84;27643;-87
2022/05/01 07:27:32;;;;;;;16.07;10.38;;;;;;;22.38;50.97;99033.02;1678694;84;25671;-87
2022/05/01 07:29:57;;;;;;;15.55;10.13;;;;;;;22.40;50.96;99031.23;1678768;84;25694;-87
2022/05/01 07:32:24;;;;;;;15.03;9.95;;;;;;;22.42;50.87;99024.65;1678853;85;26002;-87
2022/05/01 07:34:50;;;;;;;15.90;10.58;;;;;;;22.44;50.85;99029.27;1678660;84;25538;-87
2022/05/01 07:37:20;;;;;;;15.85;10.58;;;;;;;22.45;50.83;99025.27;1678713;84;28248;-88
2022/05/01 07:39:45;;;;;;;15.55;10.35;;;;;;;22.49;50.79;99023.92;1678136;85;25284;-88
2022/05/01 07:42:11;;;;;;;14.23;9.90;;;;;;;22.51;50.79;99029.93;1678925;84;25430;-88
2022/05/01 07:44:37;;;;;;;15.53;9.88;;;;;;;22.51;50.73;99030.72;1678886;85;26010;-88
2022/05/01 07:47:03;;;;;;;19.52;10.58;;;;;;;22.50;50.75;99031.10;1678860;84;25680;-86
2022/05/01 07:49:30;;;;;;;15.38;10.10;;;;;;;22.49;50.87;99025.31;1696810;84;27449;-87
2022/05/01 07:51:56;;;;;;;16.62;10.38;;;;;;;22.50;50.91;99029.70;1697887;84;25441;-87
2022/05/01 07:54:24;;;;;;;20.68;10.32;;;;;;;22.49;50.85;99034.51;1695681;83;25674;-90
2022/05/01 07:56:50;;;;;;;18.27;10.23;;;;;;;22.50;50.87;99029.70;1697144;84;26627;-90
2022/05/01 07:59:16;;;;;;;15.20;10.30;;;;;;;22.51;50.90;99022.95;1697204;84;25631;-90
2022/05/01 08:01:42;;;;;;;16.95;10.90;;;;;;;22.53;50.93;99019.97;1697668;84;27402;-90
2022/05/01 08:06:54;;;;;;;16.62;10.70;;;;;;;22.54;51.04;99017.37;1697615;84;25524;-90
2022/05/01 08:09:20;;;;;;;18.37;11.20;;;;;;;22.56;51.20;99019.78;1697865;84;26061;-91
2022/05/01 08:11:47;;;;;;;19.57;10.82;;;;;;;22.56;51.29;99017.80;1698132;83;25676;-90
2022/05/01 08:14:13;;;;;;;18.55;10.50;;;;;;;22.55;51.31;99023.19;1697905;84;27361;-90
2022/05/01 08:16:41;;;;;;;16.32;10.55;;;;;;;22.55;51.35;99012.60;1697904;83;25465;-90
2022/05/01 08:21:52;;;;;;;17.32;9.93;;;;;;;22.55;51.37;99005.63;1697645;84;25603;-89
2022/05/01 08:24:20;;;;;;;17.10;10.30;;;;;;;22.56;51.41;99002.45;1698081;84;25505;-90
2022/05/01 08:26:48;;;;;;;16.55;10.18;;;;;;;22.57;51.50;99003.25;1698016;84;27573;-90
2022/05/01 08:29:16;;;;;;;16.60;10.15;;;;;;;22.57;51.41;99003.25;1697473;84;25763;-90
2022/05/01 08:31:43;;;;;;;17.70;9.95;;;;;;;22.58;51.43;99000.69;1697933;84;25491;-90
2022/05/01 08:34:11;;;;;;;16.77;9.85;;;;;;;22.60;51.47;99004.49;1697933;83;26884;-90
2022/05/01 08:36:38;;;;;;;17.02;9.88;;;;;;;22.60;51.46;98996.11;1697973;83;25458;-90
2022/05/01 08:39:05;;;;;;;16.80;10.08;;;;;;;22.61;51.55;98994.91;1697950;84;27460;-89
2022/05/01 08:41:33;;;;;;;14.58;9.53;;;;;;;22.61;51.66;98999.92;1697868;83;25694;-90
2022/05/01 08:44:01;;;;;;;13.85;9.25;;;;;;;22.62;51.74;98995.92;1698040;83;25501;-91
2022/05/01 08:46:58;;;;;;;14.43;9.75;;;;;;;22.63;51.78;99000.34;1697973;83;26785;-90
2022/05/01 08:49:25;;;;;;;15.68;9.35;;;;;;;22.62;51.78;98998.72;1682997;84;25715;-91
2022/05/01 08:51:53;;;;;;;16.05;9.35;;;;;;;22.63;51.81;98996.73;1678555;84;27680;-90
2022/05/01 08:54:20;;;;;;;13.55;9.40;;;;;;;22.64;51.80;98997.75;1678451;84;25665;-90
2022/05/01 08:56:48;;;;;;;15.78;9.43;;;;;;;22.65;51.82;98999.95;1660950;85;25710;-90
2022/05/01 08:59:17;;;;;;;13.45;8.63;;;;;;;22.65;51.85;98993.75;1675452;84;25988;-90
2022/05/01 09:01:45;;;;;;;13.68;9.20;;;;;;;22.65;51.79;98996.55;1678626;85;25613;-90
2022/05/01 09:04:14;;;;;;;14.20;9.73;;;;;;;22.65;51.76;98993.75;1678454;85;27438;-90
2022/05/01 09:06:44;;;;;;;13.72;8.70;;;;;;;22.66;51.72;98984.20;1678430;84;25451;-89
2022/05/01 09:09:17;;;;;;;13.53;9.25;;;;;;;22.66;51.77;98992.58;1678246;85;25608;-90
2022/05/01 09:14:30;;;;;;;13.18;8.78;;;;;;;22.66;51.53;98991.19;1677883;85;25214;-90
2022/05/01 09:17:19;;;;;;;13.10;8.08;;;;;;;22.67;51.66;98976.02;1678328;84;27416;-90
2022/05/01 09:19:49;;;;;;;14.38;9.38;;;;;;;22.67;51.58;98984.98;1678702;85;25279;-90
2022/05/01 09:22:16;;;;;;;;;;;;;;;22.67;51.66;98976.02;1681393;85;25489;-90
2022/05/01 09:24:43;;;;;;;13.95;8.45;;;;;;;22.68;51.42;98979.02;1678768;85;26007;-92
2022/05/01 09:27:29;;;;;;;13.75;9.05;;;;;;;22.69;51.60;98975.02;1678782;85;25723;-89
2022/05/01 09:30:16;;;;;;;13.18;8.38;;;;;;;22.69;51.63;98975.02;1673180;85;27538;-90
2022/05/01 09:32:44;;;;;;;12.00;8.40;;;;;;;22.69;51.68;98976.41;1678783;85;25625;-90
2022/05/01 09:35:33;;;;;;;13.78;8.93;;;;;;;22.69;51.67;98965.86;1678628;85;25495;-89
2022/05/01 09:38:23;;;;;;;14.15;8.60;;;;;;;22.68;51.69;98966.44;1664787;85;26060;-91
2022/05/01 09:40:54;;;;;;;13.65;8.18;;;;;;;22.69;51.69;98967.25;1670953;85;25698;-90
2022/05/01 09:43:43;;;;;;;13.78;8.73;;;;;;;22.68;51.67;98959.46;1671082;85;27479;-90
2022/05/01 09:46:25;;;;;;;12.85;8.18;;;;;;;22.68;51.64;98957.25;1667729;84;25802;-88
2022/05/01 09:49:16;;;;;;;12.18;8.35;;;;;;;22.70;51.58;98954.88;1663148;85;25641;-91
2022/05/01 09:51:55;;;;;;;13.00;8.45;;;;;;;22.69;51.66;98951.27;1663066;85;26073;-89
2022/05/01 09:54:25;;;;;;;11.50;8.20;;;;;;;22.69;51.68;98954.69;1663406;85;25682;-91
2022/05/01 09:56:59;;;;;;;11.48;8.03;;;;;;;22.69;51.57;98958.26;1660526;84;27393;-91
2022/05/01 09:59:29;;;;;;;11.48;7.90;;;;;;;22.71;51.38;98949.48;1663280;85;25775;-91
2022/05/01 10:02:05;;;;;;;11.97;8.03;;;;;;;22.72;51.29;98955.30;1663257;85;25770;-89
2022/05/01 10:04:34;;;;;;;13.00;8.40;;;;;;;22.73;51.19;98952.70;1663236;85;26048;-89
2022/05/01 10:07:03;;;;;;;10.65;7.80;;;;;;;22.72;51.22;98955.89;1663187;85;25496;-89
2022/05/01 10:09:32;;;;;;;12.15;7.92;;;;;;;22.68;51.34;98950.27;1663202;85;27458;-89
2022/05/01 10:12:05;;;;;;;15.63;8.45;;;;;;;22.68;51.29;98952.48;1663274;86;25804;-89
2022/05/01 10:14:32;;;;;;;11.03;7.92;;;;;;;22.69;51.36;98948.48;1663396;86;25461;-90
2022/05/01 10:17:00;;;;;;;12.43;7.78;;;;;;;22.69;51.33;98944.30;1663275;85;26096;-89
2022/05/01 10:19:27;;;;;;;12.07;7.55;;;;;;;22.69;51.24;98947.09;1653255;85;25684;-89
2022/05/01 10:21:59;;;;;;;12.93;7.95;;;;;;;22.68;51.00;98941.89;1663155;84;27390;-89
2022/05/01 10:24:28;;;;;;;13.85;8.33;;;;;;;22.68;50.92;98942.70;1663180;85;25612;-90
2022/05/01 10:27:10;;;;;;;10.70;7.70;;;;;;;22.66;51.02;98933.92;1663010;85;25248;-90
2022/05/01 10:32:41;;;;;;;11.05;7.75;;;;;;;22.70;51.14;98942.31;1614354;85;25780;-89
2022/05/01 10:35:26;;;;;;;12.68;8.20;;;;;;;22.68;51.11;98937.70;1671713;85;27403;-89
2022/05/01 10:38:17;;;;;;;11.20;7.70;;;;;;;22.66;51.18;98928.34;1652332;86;25724;-89
2022/05/01 10:40:55;;;;;;;14.38;8.48;;;;;;;22.67;51.34;98929.94;1644922;86;25731;-91
2022/05/01 10:43:36;;;;;;;13.15;8.38;;;;;;;22.67;51.37;98929.94;1652269;86;27097;-92
2022/05/01 10:46:23;;;;;;;11.55;8.38;;;;;;;22.68;51.45;98923.73;1652573;86;25693;-90
2022/05/01 10:48:50;;;;;;;11.85;8.48;;;;;;;22.65;51.59;98921.13;1652663;85;28138;-90
2022/05/01 10:51:39;;;;;;;12.70;9.10;;;;;;;22.66;51.65;98920.55;1652515;85;25457;-90
2022/05/01 10:54:32;;;;;;;12.03;9.60;;;;;;;22.65;51.71;98914.15;1651169;85;25519;-90
2022/05/01 10:57:10;;;;;;;13.22;10.20;;;;;;;22.65;51.80;98918.34;1652288;86;26305;-92
2022/05/01 10:59:46;;;;;;;10.78;9.00;;;;;;;22.65;51.93;98918.95;1652655;86;25635;-92
2022/05/01 11:02:24;;;;;;;12.55;9.60;;;;;;;22.65;52.04;98908.56;1652576;86;27399;-91
2022/05/01 11:04:54;;;;;;;11.57;9.33;;;;;;;22.67;52.19;98917.95;1652275;86;25628;-92
2022/05/01 11:07:23;;;;;;;12.60;10.23;;;;;;;22.66;52.29;98917.17;1652951;86;25560;-91
2022/05/01 11:09:50;;;;;;;12.00;10.18;;;;;;;22.66;52.50;98903.79;1652592;86;25941;-91
2022/05/01 11:12:22;;;;;;;13.32;10.60;;;;;;;22.66;52.58;98910.19;1652630;86;25465;-90
2022/05/01 11:15:10;;;;;;;14.23;10.80;;;;;;;22.67;52.78;98904.80;1652324;86;27429;-90
2022/05/01 11:17:42;;;;;;;14.93;11.12;;;;;;;22.68;52.83;98905.58;1652628;86;25682;-91
2022/05/01 11:20:23;;;;;;;13.65;11.45;;;;;;;22.69;52.96;98903.79;1652445;86;25663;-92
2022/05/01 11:22:50;;;;;;;16.30;11.95;;;;;;;22.71;53.20;98901.22;1652517;86;25730;-90
2022/05/01 11:25:32;;;;;;;14.53;11.88;;;;;;;22.70;53.44;98901.81;1652774;85;25628;-90
2022/05/01 11:28:00;;;;;;;14.10;11.80;;;;;;;22.71;53.65;98898.43;1652782;86;27405;-90
2022/05/01 11:30:36;;;;;;;13.58;11.60;;;;;;;22.69;53.61;98896.81;1652675;86;25753;-90
2022/05/01 11:33:10;;;;;;;14.73;12.25;;;;;;;22.69;53.83;98892.62;1652555;86;25735;-91
2022/05/01 11:36:02;;;;;;;14.25;12.00;;;;;;;22.70;54.00;98899.02;1652317;86;26949;-93
2022/05/01 11:38:46;;;;;;;14.60;12.33;;;;;;;22.73;53.94;98897.42;1652376;86;25643;-92
2022/05/01 11:41:12;;;;;;;14.30;12.43;;;;;;;22.71;54.13;98898.43;1652578;86;27378;-90
2022/05/01 11:43:38;;;;;;;13.70;11.60;;;;;;;22.68;54.30;98887.42;1652567;86;25780;-89
2022/05/01 11:46:09;;;;;;;14.73;11.80;;;;;;;22.69;54.22;98884.23;1666992;84;25785;-91
2022/05/01 11:48:35;;;;;;;13.30;11.85;;;;;;;22.69;54.24;98882.06;1686254;83;26088;-92
2022/05/01 11:51:01;;;;;;;15.32;12.70;;;;;;;22.69;54.31;98889.05;1689912;83;25436;-92
2022/05/01 11:53:33;;;;;;;15.93;12.65;;;;;;;22.71;54.49;98886.64;1681679;84;27357;-90